sensor_id;sensor_type;location;lat;lon;timestamp;P1;durP1;ratioP1;P2;durP2;ratioP2
76157;SDS011;64907;51.574;6.502;2024-02-21T00:00:05;34.28;;;15.15;;
76157;SDS011;64907;51.574;6.502;2024-02-21T00:02:31;30.98;;;14.55;;
76157;SDS011;64907;51.574;6.502;2024-02-21T00:07:32;31.90;;;15.77;;
76157;SDS011;64907;51.574;6.502;2024-02-21T00:12:51;32.22;;;15.02;;
76157;SDS011;64907;51.574;6.502;2024-02-21T00:15:17;29.55;;;16.05;;
76157;SDS011;64907;51.574;6.502;2024-02-21T00:17:43;30.55;;;15.38;;
76157;SDS011;64907;51.574;6.502;2024-02-21T00:20:08;31.50;;;14.32;;
76157;SDS011;64907;51.574;6.502;2024-02-21T00:25:15;31.30;;;15.65;;
76157;SDS011;64907;51.574;6.502;2024-02-21T00:27:55;32.63;;;15.30;;
76157;SDS011;64907;51.574;6.502;2024-02-21T00:30:20;31.63;;;15.50;;
76157;SDS011;64907;51.574;6.502;2024-02-21T00:32:46;27.42;;;15.27;;
76157;SDS011;64907;51.574;6.502;2024-02-21T00:35:26;34.40;;;14.55;;
76157;SDS011;64907;51.574;6.502;2024-02-21T00:37:52;30.23;;;14.38;;
76157;SDS011;64907;51.574;6.502;2024-02-21T00:40:17;29.88;;;14.07;;
76157;SDS011;64907;51.574;6.502;2024-02-21T00:42:46;26.38;;;14.68;;
76157;SDS011;64907;51.574;6.502;2024-02-21T00:45:14;34.97;;;14.35;;
76157;SDS011;64907;51.574;6.502;2024-02-21T00:47:39;29.35;;;14.23;;
76157;SDS011;64907;51.574;6.502;2024-02-21T00:52:34;27.52;;;15.05;;
76157;SDS011;64907;51.574;6.502;2024-02-21T00:54:59;32.13;;;14.48;;
76157;SDS011;64907;51.574;6.502;2024-02-21T00:57:25;27.70;;;14.10;;
76157;SDS011;64907;51.574;6.502;2024-02-21T00:59:51;27.83;;;14.38;;
76157;SDS011;64907;51.574;6.502;2024-02-21T01:02:16;34.92;;;15.10;;
76157;SDS011;64907;51.574;6.502;2024-02-21T01:07:19;28.27;;;14.45;;
76157;SDS011;64907;51.574;6.502;2024-02-21T01:09:44;30.98;;;14.75;;
76157;SDS011;64907;51.574;6.502;2024-02-21T01:14:59;28.27;;;14.93;;
76157;SDS011;64907;51.574;6.502;2024-02-21T01:17:24;35.75;;;15.23;;
76157;SDS011;64907;51.574;6.502;2024-02-21T01:19:49;35.42;;;15.60;;
76157;SDS011;64907;51.574;6.502;2024-02-21T01:24:44;37.60;;;15.73;;
76157;SDS011;64907;51.574;6.502;2024-02-21T01:27:09;28.88;;;15.75;;
76157;SDS011;64907;51.574;6.502;2024-02-21T01:29:36;34.50;;;14.35;;
76157;SDS011;64907;51.574;6.502;2024-02-21T01:32:01;31.17;;;15.60;;
76157;SDS011;64907;51.574;6.502;2024-02-21T01:34:26;29.00;;;13.80;;
76157;SDS011;64907;51.574;6.502;2024-02-21T01:36:52;28.98;;;14.48;;
76157;SDS011;64907;51.574;6.502;2024-02-21T01:39:17;33.53;;;14.40;;
76157;SDS011;64907;51.574;6.502;2024-02-21T01:41:42;29.90;;;15.07;;
76157;SDS011;64907;51.574;6.502;2024-02-21T01:47:17;31.15;;;16.00;;
76157;SDS011;64907;51.574;6.502;2024-02-21T01:49:49;27.40;;;14.65;;
76157;SDS011;64907;51.574;6.502;2024-02-21T01:52:14;30.80;;;14.55;;
76157;SDS011;64907;51.574;6.502;2024-02-21T01:54:41;32.80;;;14.68;;
76157;SDS011;64907;51.574;6.502;2024-02-21T01:57:19;32.85;;;15.02;;
76157;SDS011;64907;51.574;6.502;2024-02-21T01:59:44;29.55;;;14.20;;
76157;SDS011;64907;51.574;6.502;2024-02-21T02:04:41;29.30;;;14.30;;
76157;SDS011;64907;51.574;6.502;2024-02-21T02:07:07;24.50;;;14.25;;
76157;SDS011;64907;51.574;6.502;2024-02-21T02:09:32;23.98;;;14.23;;
76157;SDS011;64907;51.574;6.502;2024-02-21T02:11:58;26.23;;;13.55;;
76157;SDS011;64907;51.574;6.502;2024-02-21T02:16:53;29.23;;;13.10;;
76157;SDS011;64907;51.574;6.502;2024-02-21T02:19:18;28.60;;;12.52;;
76157;SDS011;64907;51.574;6.502;2024-02-21T02:21:49;25.38;;;12.93;;
76157;SDS011;64907;51.574;6.502;2024-02-21T02:24:20;23.55;;;13.15;;
76157;SDS011;64907;51.574;6.502;2024-02-21T02:26:48;22.48;;;12.57;;
76157;SDS011;64907;51.574;6.502;2024-02-21T02:29:13;23.92;;;13.05;;
76157;SDS011;64907;51.574;6.502;2024-02-21T02:31:38;27.98;;;12.85;;
76157;SDS011;64907;51.574;6.502;2024-02-21T02:34:04;19.23;;;12.35;;
76157;SDS011;64907;51.574;6.502;2024-02-21T02:39:13;21.88;;;11.85;;
76157;SDS011;64907;51.574;6.502;2024-02-21T02:41:46;24.20;;;11.77;;
76157;SDS011;64907;51.574;6.502;2024-02-21T02:44:11;26.30;;;12.20;;
76157;SDS011;64907;51.574;6.502;2024-02-21T02:46:41;22.08;;;11.98;;
76157;SDS011;64907;51.574;6.502;2024-02-21T02:49:07;26.48;;;12.32;;
76157;SDS011;64907;51.574;6.502;2024-02-21T02:51:32;24.17;;;12.02;;
76157;SDS011;64907;51.574;6.502;2024-02-21T02:53:58;22.05;;;10.82;;
76157;SDS011;64907;51.574;6.502;2024-02-21T02:56:24;25.27;;;11.18;;
76157;SDS011;64907;51.574;6.502;2024-02-21T02:58:49;23.30;;;12.70;;
76157;SDS011;64907;51.574;6.502;2024-02-21T03:01:14;22.42;;;11.18;;
76157;SDS011;64907;51.574;6.502;2024-02-21T03:03:40;26.35;;;12.13;;
76157;SDS011;64907;51.574;6.502;2024-02-21T03:06:05;19.17;;;10.45;;
76157;SDS011;64907;51.574;6.502;2024-02-21T03:08:30;21.25;;;11.02;;
76157;SDS011;64907;51.574;6.502;2024-02-21T03:10:57;16.30;;;10.93;;
76157;SDS011;64907;51.574;6.502;2024-02-21T03:13:23;17.63;;;10.43;;
76157;SDS011;64907;51.574;6.502;2024-02-21T03:15:48;17.55;;;10.15;;
76157;SDS011;64907;51.574;6.502;2024-02-21T03:18:13;21.63;;;10.23;;
76157;SDS011;64907;51.574;6.502;2024-02-21T03:20:47;20.80;;;10.68;;
76157;SDS011;64907;51.574;6.502;2024-02-21T03:23:12;19.08;;;9.63;;
76157;SDS011;64907;51.574;6.502;2024-02-21T03:25:37;18.63;;;9.80;;
76157;SDS011;64907;51.574;6.502;2024-02-21T03:28:03;20.15;;;10.27;;
76157;SDS011;64907;51.574;6.502;2024-02-21T03:30:28;16.63;;;9.13;;
76157;SDS011;64907;51.574;6.502;2024-02-21T03:32:53;23.08;;;10.48;;
76157;SDS011;64907;51.574;6.502;2024-02-21T03:35:19;18.25;;;10.45;;
76157;SDS011;64907;51.574;6.502;2024-02-21T03:37:44;22.77;;;10.27;;
76157;SDS011;64907;51.574;6.502;2024-02-21T03:40:10;17.40;;;10.40;;
76157;SDS011;64907;51.574;6.502;2024-02-21T03:42:35;17.42;;;9.35;;
76157;SDS011;64907;51.574;6.502;2024-02-21T03:45:01;18.40;;;9.85;;
76157;SDS011;64907;51.574;6.502;2024-02-21T03:47:26;21.23;;;10.02;;
76157;SDS011;64907;51.574;6.502;2024-02-21T03:49:51;21.00;;;9.40;;
76157;SDS011;64907;51.574;6.502;2024-02-21T03:52:17;15.52;;;8.98;;
76157;SDS011;64907;51.574;6.502;2024-02-21T03:54:49;19.70;;;10.07;;
76157;SDS011;64907;51.574;6.502;2024-02-21T03:57:14;16.77;;;9.80;;
76157;SDS011;64907;51.574;6.502;2024-02-21T03:59:40;19.52;;;8.93;;
76157;SDS011;64907;51.574;6.502;2024-02-21T04:02:05;16.73;;;8.73;;
76157;SDS011;64907;51.574;6.502;2024-02-21T04:04:33;10.50;;;8.20;;
76157;SDS011;64907;51.574;6.502;2024-02-21T04:07:14;13.93;;;9.10;;
76157;SDS011;64907;51.574;6.502;2024-02-21T04:09:40;15.80;;;8.98;;
76157;SDS011;64907;51.574;6.502;2024-02-21T04:12:05;14.35;;;9.00;;
76157;SDS011;64907;51.574;6.502;2024-02-21T04:14:30;14.85;;;9.10;;
76157;SDS011;64907;51.574;6.502;2024-02-21T04:16:55;19.10;;;9.88;;
76157;SDS011;64907;51.574;6.502;2024-02-21T04:19:21;16.73;;;9.32;;
76157;SDS011;64907;51.574;6.502;2024-02-21T04:21:46;16.00;;;9.52;;
76157;SDS011;64907;51.574;6.502;2024-02-21T04:24:11;19.70;;;8.63;;
76157;SDS011;64907;51.574;6.502;2024-02-21T04:26:37;18.33;;;9.23;;
76157;SDS011;64907;51.574;6.502;2024-02-21T04:29:02;16.75;;;8.95;;
76157;SDS011;64907;51.574;6.502;2024-02-21T04:31:32;16.48;;;8.93;;
76157;SDS011;64907;51.574;6.502;2024-02-21T04:33:57;13.73;;;8.73;;
76157;SDS011;64907;51.574;6.502;2024-02-21T04:36:22;14.48;;;8.50;;
76157;SDS011;64907;51.574;6.502;2024-02-21T04:38:48;17.10;;;8.50;;
76157;SDS011;64907;51.574;6.502;2024-02-21T04:41:15;17.48;;;8.70;;
76157;SDS011;64907;51.574;6.502;2024-02-21T04:43:40;13.55;;;9.05;;
76157;SDS011;64907;51.574;6.502;2024-02-21T04:46:05;16.63;;;8.65;;
76157;SDS011;64907;51.574;6.502;2024-02-21T04:48:46;15.27;;;8.43;;
76157;SDS011;64907;51.574;6.502;2024-02-21T04:51:11;12.57;;;7.40;;
76157;SDS011;64907;51.574;6.502;2024-02-21T04:53:37;16.52;;;8.20;;
76157;SDS011;64907;51.574;6.502;2024-02-21T04:56:03;13.05;;;7.80;;
76157;SDS011;64907;51.574;6.502;2024-02-21T04:58:28;13.88;;;7.63;;
76157;SDS011;64907;51.574;6.502;2024-02-21T05:00:55;18.90;;;8.38;;
76157;SDS011;64907;51.574;6.502;2024-02-21T05:03:21;16.13;;;8.23;;
76157;SDS011;64907;51.574;6.502;2024-02-21T05:05:47;15.60;;;7.63;;
76157;SDS011;64907;51.574;6.502;2024-02-21T05:08:12;14.10;;;8.23;;
76157;SDS011;64907;51.574;6.502;2024-02-21T05:10:37;14.65;;;7.38;;
76157;SDS011;64907;51.574;6.502;2024-02-21T05:13:03;11.27;;;7.40;;
76157;SDS011;64907;51.574;6.502;2024-02-21T05:15:28;14.02;;;7.60;;
76157;SDS011;64907;51.574;6.502;2024-02-21T05:17:53;14.90;;;7.05;;
76157;SDS011;64907;51.574;6.502;2024-02-21T05:20:19;13.80;;;7.50;;
76157;SDS011;64907;51.574;6.502;2024-02-21T05:25:37;12.25;;;6.80;;
76157;SDS011;64907;51.574;6.502;2024-02-21T05:28:03;15.10;;;7.13;;
76157;SDS011;64907;51.574;6.502;2024-02-21T05:30:36;13.57;;;6.57;;
76157;SDS011;64907;51.574;6.502;2024-02-21T05:33:05;10.93;;;6.75;;
76157;SDS011;64907;51.574;6.502;2024-02-21T05:35:30;10.90;;;5.95;;
76157;SDS011;64907;51.574;6.502;2024-02-21T05:37:56;11.82;;;7.05;;
76157;SDS011;64907;51.574;6.502;2024-02-21T05:40:21;14.80;;;6.50;;
76157;SDS011;64907;51.574;6.502;2024-02-21T05:42:47;15.18;;;6.97;;
76157;SDS011;64907;51.574;6.502;2024-02-21T05:45:12;14.00;;;7.13;;
76157;SDS011;64907;51.574;6.502;2024-02-21T05:47:41;10.82;;;6.32;;
76157;SDS011;64907;51.574;6.502;2024-02-21T05:50:07;11.98;;;7.30;;
76157;SDS011;64907;51.574;6.502;2024-02-21T05:52:35;15.57;;;7.28;;
76157;SDS011;64907;51.574;6.502;2024-02-21T05:55:00;17.63;;;7.18;;
76157;SDS011;64907;51.574;6.502;2024-02-21T05:57:26;13.00;;;7.65;;
76157;SDS011;64907;51.574;6.502;2024-02-21T05:59:51;11.63;;;7.20;;
76157;SDS011;64907;51.574;6.502;2024-02-21T06:02:16;15.90;;;6.85;;
76157;SDS011;64907;51.574;6.502;2024-02-21T06:04:42;16.02;;;7.85;;
76157;SDS011;64907;51.574;6.502;2024-02-21T06:07:07;16.63;;;7.72;;
76157;SDS011;64907;51.574;6.502;2024-02-21T06:09:33;17.90;;;8.20;;
76157;SDS011;64907;51.574;6.502;2024-02-21T06:11:58;19.23;;;8.55;;
76157;SDS011;64907;51.574;6.502;2024-02-21T06:14:23;12.82;;;7.82;;
76157;SDS011;64907;51.574;6.502;2024-02-21T06:16:51;14.15;;;8.20;;
76157;SDS011;64907;51.574;6.502;2024-02-21T06:19:16;19.05;;;8.48;;
76157;SDS011;64907;51.574;6.502;2024-02-21T06:24:11;14.18;;;8.23;;
76157;SDS011;64907;51.574;6.502;2024-02-21T06:26:38;18.58;;;8.15;;
76157;SDS011;64907;51.574;6.502;2024-02-21T06:29:03;15.77;;;8.95;;
76157;SDS011;64907;51.574;6.502;2024-02-21T06:31:28;18.52;;;8.20;;
76157;SDS011;64907;51.574;6.502;2024-02-21T06:33:53;16.15;;;8.07;;
76157;SDS011;64907;51.574;6.502;2024-02-21T06:36:19;24.35;;;7.90;;
76157;SDS011;64907;51.574;6.502;2024-02-21T06:38:44;11.65;;;8.15;;
76157;SDS011;64907;51.574;6.502;2024-02-21T06:44:17;16.20;;;9.05;;
76157;SDS011;64907;51.574;6.502;2024-02-21T06:46:42;14.82;;;7.20;;
76157;SDS011;64907;51.574;6.502;2024-02-21T06:51:50;20.73;;;7.68;;
76157;SDS011;64907;51.574;6.502;2024-02-21T06:54:16;15.57;;;8.20;;
76157;SDS011;64907;51.574;6.502;2024-02-21T06:59:10;14.35;;;7.65;;
76157;SDS011;64907;51.574;6.502;2024-02-21T07:01:36;15.45;;;8.15;;
76157;SDS011;64907;51.574;6.502;2024-02-21T07:04:01;12.13;;;7.38;;
76157;SDS011;64907;51.574;6.502;2024-02-21T07:06:26;17.42;;;7.93;;
76157;SDS011;64907;51.574;6.502;2024-02-21T07:08:52;13.23;;;7.13;;
76157;SDS011;64907;51.574;6.502;2024-02-21T07:11:18;13.05;;;7.30;;
76157;SDS011;64907;51.574;6.502;2024-02-21T07:13:51;17.98;;;7.93;;
76157;SDS011;64907;51.574;6.502;2024-02-21T07:16:17;16.73;;;7.55;;
76157;SDS011;64907;51.574;6.502;2024-02-21T07:18:42;14.95;;;8.07;;
76157;SDS011;64907;51.574;6.502;2024-02-21T07:21:07;14.82;;;8.13;;
76157;SDS011;64907;51.574;6.502;2024-02-21T07:23:32;14.40;;;8.45;;
76157;SDS011;64907;51.574;6.502;2024-02-21T07:26:06;21.48;;;8.60;;
76157;SDS011;64907;51.574;6.502;2024-02-21T07:28:31;15.68;;;8.55;;
76157;SDS011;64907;51.574;6.502;2024-02-21T07:30:58;13.82;;;8.00;;
76157;SDS011;64907;51.574;6.502;2024-02-21T07:36:07;17.38;;;8.70;;
76157;SDS011;64907;51.574;6.502;2024-02-21T07:38:33;17.33;;;8.65;;
76157;SDS011;64907;51.574;6.502;2024-02-21T07:41:04;19.30;;;9.82;;
76157;SDS011;64907;51.574;6.502;2024-02-21T07:43:30;18.83;;;9.55;;
76157;SDS011;64907;51.574;6.502;2024-02-21T07:45:55;20.00;;;9.57;;
76157;SDS011;64907;51.574;6.502;2024-02-21T07:48:21;17.38;;;8.35;;
76157;SDS011;64907;51.574;6.502;2024-02-21T07:50:51;16.48;;;8.75;;
76157;SDS011;64907;51.574;6.502;2024-02-21T07:53:19;19.42;;;8.88;;
76157;SDS011;64907;51.574;6.502;2024-02-21T07:58:15;16.02;;;9.57;;
76157;SDS011;64907;51.574;6.502;2024-02-21T08:00:40;21.77;;;9.85;;
76157;SDS011;64907;51.574;6.502;2024-02-21T08:03:05;18.45;;;8.75;;
76157;SDS011;64907;51.574;6.502;2024-02-21T08:08:24;15.75;;;7.82;;
76157;SDS011;64907;51.574;6.502;2024-02-21T08:10:50;19.63;;;7.50;;
76157;SDS011;64907;51.574;6.502;2024-02-21T08:15:43;14.57;;;7.75;;
76157;SDS011;64907;51.574;6.502;2024-02-21T08:18:12;12.40;;;7.32;;
76157;SDS011;64907;51.574;6.502;2024-02-21T08:20:37;14.63;;;7.82;;
76157;SDS011;64907;51.574;6.502;2024-02-21T08:23:03;15.77;;;8.10;;
76157;SDS011;64907;51.574;6.502;2024-02-21T08:28:00;10.27;;;6.88;;
76157;SDS011;64907;51.574;6.502;2024-02-21T08:33:19;11.10;;;6.60;;
76157;SDS011;64907;51.574;6.502;2024-02-21T08:35:49;14.45;;;6.47;;
76157;SDS011;64907;51.574;6.502;2024-02-21T08:38:14;10.85;;;5.18;;
76157;SDS011;64907;51.574;6.502;2024-02-21T08:40:40;14.25;;;5.80;;
76157;SDS011;64907;51.574;6.502;2024-02-21T08:45:34;9.77;;;5.18;;
76157;SDS011;64907;51.574;6.502;2024-02-21T08:50:33;13.38;;;6.22;;
76157;SDS011;64907;51.574;6.502;2024-02-21T08:52:58;11.23;;;5.47;;
76157;SDS011;64907;51.574;6.502;2024-02-21T08:55:23;11.35;;;5.68;;
76157;SDS011;64907;51.574;6.502;2024-02-21T08:57:49;8.35;;;5.53;;
76157;SDS011;64907;51.574;6.502;2024-02-21T09:00:14;11.40;;;5.82;;
76157;SDS011;64907;51.574;6.502;2024-02-21T09:02:40;12.40;;;5.72;;
76157;SDS011;64907;51.574;6.502;2024-02-21T09:07:51;13.18;;;5.50;;
76157;SDS011;64907;51.574;6.502;2024-02-21T09:10:26;9.85;;;5.13;;
76157;SDS011;64907;51.574;6.502;2024-02-21T09:12:51;9.70;;;6.28;;
76157;SDS011;64907;51.574;6.502;2024-02-21T09:15:19;5.78;;;5.22;;
76157;SDS011;64907;51.574;6.502;2024-02-21T09:17:44;11.00;;;5.82;;
76157;SDS011;64907;51.574;6.502;2024-02-21T09:34:06;11.63;;;5.75;;
76157;SDS011;64907;51.574;6.502;2024-02-21T09:36:31;8.10;;;5.22;;
76157;SDS011;64907;51.574;6.502;2024-02-21T09:39:00;9.80;;;5.65;;
76157;SDS011;64907;51.574;6.502;2024-02-21T09:41:26;16.55;;;6.10;;
76157;SDS011;64907;51.574;6.502;2024-02-21T09:43:54;11.77;;;5.95;;
76157;SDS011;64907;51.574;6.502;2024-02-21T09:46:30;10.60;;;5.90;;
76157;SDS011;64907;51.574;6.502;2024-02-21T09:54:09;12.48;;;6.57;;
76157;SDS011;64907;51.574;6.502;2024-02-21T09:56:34;13.40;;;6.32;;
76157;SDS011;64907;51.574;6.502;2024-02-21T09:59:00;11.15;;;5.75;;
76157;SDS011;64907;51.574;6.502;2024-02-21T10:01:29;13.25;;;6.15;;
76157;SDS011;64907;51.574;6.502;2024-02-21T10:03:55;11.45;;;5.60;;
76157;SDS011;64907;51.574;6.502;2024-02-21T10:06:20;10.80;;;6.40;;
76157;SDS011;64907;51.574;6.502;2024-02-21T10:08:51;12.25;;;6.07;;
76157;SDS011;64907;51.574;6.502;2024-02-21T10:11:23;10.02;;;5.72;;
76157;SDS011;64907;51.574;6.502;2024-02-21T10:13:49;14.48;;;5.93;;
76157;SDS011;64907;51.574;6.502;2024-02-21T10:16:14;13.95;;;6.80;;
76157;SDS011;64907;51.574;6.502;2024-02-21T10:21:16;11.27;;;5.72;;
76157;SDS011;64907;51.574;6.502;2024-02-21T10:23:46;9.45;;;5.75;;
76157;SDS011;64907;51.574;6.502;2024-02-21T10:26:12;7.97;;;5.25;;
76157;SDS011;64907;51.574;6.502;2024-02-21T10:28:37;8.93;;;5.00;;
76157;SDS011;64907;51.574;6.502;2024-02-21T10:33:57;14.35;;;5.47;;
76157;SDS011;64907;51.574;6.502;2024-02-21T10:36:22;12.55;;;5.10;;
76157;SDS011;64907;51.574;6.502;2024-02-21T10:38:49;10.10;;;4.70;;
76157;SDS011;64907;51.574;6.502;2024-02-21T10:41:14;11.57;;;4.53;;
76157;SDS011;64907;51.574;6.502;2024-02-21T10:43:41;10.85;;;4.53;;
76157;SDS011;64907;51.574;6.502;2024-02-21T10:46:07;8.63;;;4.72;;
76157;SDS011;64907;51.574;6.502;2024-02-21T10:51:20;8.27;;;5.00;;
76157;SDS011;64907;51.574;6.502;2024-02-21T10:56:28;6.00;;;3.55;;
76157;SDS011;64907;51.574;6.502;2024-02-21T10:58:53;8.10;;;4.50;;
76157;SDS011;64907;51.574;6.502;2024-02-21T11:01:21;7.97;;;4.00;;
76157;SDS011;64907;51.574;6.502;2024-02-21T11:03:46;8.13;;;3.75;;
76157;SDS011;64907;51.574;6.502;2024-02-21T11:06:13;6.07;;;3.75;;
76157;SDS011;64907;51.574;6.502;2024-02-21T11:08:38;8.57;;;3.92;;
76157;SDS011;64907;51.574;6.502;2024-02-21T11:11:04;8.27;;;4.32;;
76157;SDS011;64907;51.574;6.502;2024-02-21T11:13:37;10.10;;;4.10;;
76157;SDS011;64907;51.574;6.502;2024-02-21T11:16:09;6.40;;;3.97;;
76157;SDS011;64907;51.574;6.502;2024-02-21T11:18:35;8.88;;;3.50;;
76157;SDS011;64907;51.574;6.502;2024-02-21T11:21:00;6.80;;;3.88;;
76157;SDS011;64907;51.574;6.502;2024-02-21T11:23:26;8.90;;;3.50;;
76157;SDS011;64907;51.574;6.502;2024-02-21T11:28:55;6.75;;;3.70;;
76157;SDS011;64907;51.574;6.502;2024-02-21T11:31:22;7.03;;;3.88;;
76157;SDS011;64907;51.574;6.502;2024-02-21T11:33:47;5.57;;;3.42;;
76157;SDS011;64907;51.574;6.502;2024-02-21T11:36:25;7.93;;;4.20;;
76157;SDS011;64907;51.574;6.502;2024-02-21T11:38:51;6.72;;;3.75;;
76157;SDS011;64907;51.574;6.502;2024-02-21T11:41:17;6.35;;;3.85;;
76157;SDS011;64907;51.574;6.502;2024-02-21T11:43:42;11.15;;;4.60;;
76157;SDS011;64907;51.574;6.502;2024-02-21T11:46:11;7.53;;;3.92;;
76157;SDS011;64907;51.574;6.502;2024-02-21T11:48:36;7.55;;;3.97;;
76157;SDS011;64907;51.574;6.502;2024-02-21T11:51:01;5.97;;;3.90;;
76157;SDS011;64907;51.574;6.502;2024-02-21T11:53:28;7.45;;;4.32;;
76157;SDS011;64907;51.574;6.502;2024-02-21T11:56:04;12.05;;;4.10;;
76157;SDS011;64907;51.574;6.502;2024-02-21T11:58:29;10.07;;;4.07;;
76157;SDS011;64907;51.574;6.502;2024-02-21T12:01:04;9.95;;;4.05;;
76157;SDS011;64907;51.574;6.502;2024-02-21T12:03:29;7.97;;;3.88;;
76157;SDS011;64907;51.574;6.502;2024-02-21T12:05:55;10.85;;;3.75;;
76157;SDS011;64907;51.574;6.502;2024-02-21T12:08:22;8.63;;;3.85;;
76157;SDS011;64907;51.574;6.502;2024-02-21T12:10:47;7.20;;;3.95;;
76157;SDS011;64907;51.574;6.502;2024-02-21T12:13:16;7.28;;;3.88;;
76157;SDS011;64907;51.574;6.502;2024-02-21T12:15:41;9.95;;;4.18;;
76157;SDS011;64907;51.574;6.502;2024-02-21T12:18:06;5.78;;;3.88;;
76157;SDS011;64907;51.574;6.502;2024-02-21T12:20:32;12.05;;;4.22;;
76157;SDS011;64907;51.574;6.502;2024-02-21T12:23:08;8.68;;;3.97;;
76157;SDS011;64907;51.574;6.502;2024-02-21T12:25:34;8.23;;;4.13;;
76157;SDS011;64907;51.574;6.502;2024-02-21T12:27:59;5.88;;;3.97;;
76157;SDS011;64907;51.574;6.502;2024-02-21T12:30:25;12.15;;;4.32;;
76157;SDS011;64907;51.574;6.502;2024-02-21T12:35:23;7.75;;;3.65;;
76157;SDS011;64907;51.574;6.502;2024-02-21T12:37:48;7.63;;;4.03;;
76157;SDS011;64907;51.574;6.502;2024-02-21T12:40:14;8.00;;;4.00;;
76157;SDS011;64907;51.574;6.502;2024-02-21T12:42:39;7.65;;;4.03;;
76157;SDS011;64907;51.574;6.502;2024-02-21T12:45:04;6.65;;;3.90;;
76157;SDS011;64907;51.574;6.502;2024-02-21T12:47:31;6.90;;;3.47;;
76157;SDS011;64907;51.574;6.502;2024-02-21T12:49:56;10.40;;;4.03;;
76157;SDS011;64907;51.574;6.502;2024-02-21T12:52:23;8.68;;;3.50;;
76157;SDS011;64907;51.574;6.502;2024-02-21T12:54:48;5.32;;;3.92;;
76157;SDS011;64907;51.574;6.502;2024-02-21T12:57:17;10.30;;;3.72;;
76157;SDS011;64907;51.574;6.502;2024-02-21T12:59:43;5.03;;;3.53;;
76157;SDS011;64907;51.574;6.502;2024-02-21T13:02:08;6.97;;;3.33;;
76157;SDS011;64907;51.574;6.502;2024-02-21T13:04:33;7.60;;;3.78;;
76157;SDS011;64907;51.574;6.502;2024-02-21T13:06:59;7.60;;;3.88;;
76157;SDS011;64907;51.574;6.502;2024-02-21T13:09:24;7.50;;;3.85;;
76157;SDS011;64907;51.574;6.502;2024-02-21T13:11:49;8.82;;;3.58;;
76157;SDS011;64907;51.574;6.502;2024-02-21T13:14:16;4.68;;;3.65;;
76157;SDS011;64907;51.574;6.502;2024-02-21T13:16:41;5.75;;;3.50;;
76157;SDS011;64907;51.574;6.502;2024-02-21T13:19:07;5.55;;;3.58;;
76157;SDS011;64907;51.574;6.502;2024-02-21T13:24:12;9.55;;;3.30;;
76157;SDS011;64907;51.574;6.502;2024-02-21T13:26:45;6.53;;;2.90;;
76157;SDS011;64907;51.574;6.502;2024-02-21T13:29:18;8.05;;;3.67;;
76157;SDS011;64907;51.574;6.502;2024-02-21T13:31:43;6.78;;;3.63;;
76157;SDS011;64907;51.574;6.502;2024-02-21T13:34:09;6.65;;;3.65;;
76157;SDS011;64907;51.574;6.502;2024-02-21T13:36:48;6.28;;;3.13;;
76157;SDS011;64907;51.574;6.502;2024-02-21T13:39:14;5.85;;;3.75;;
76157;SDS011;64907;51.574;6.502;2024-02-21T13:41:41;6.00;;;3.78;;
76157;SDS011;64907;51.574;6.502;2024-02-21T13:44:07;5.32;;;3.10;;
76157;SDS011;64907;51.574;6.502;2024-02-21T13:46:32;8.80;;;3.72;;
76157;SDS011;64907;51.574;6.502;2024-02-21T13:49:07;10.18;;;4.10;;
76157;SDS011;64907;51.574;6.502;2024-02-21T13:54:10;5.45;;;2.97;;
76157;SDS011;64907;51.574;6.502;2024-02-21T13:56:37;8.52;;;3.58;;
76157;SDS011;64907;51.574;6.502;2024-02-21T13:59:03;5.68;;;3.72;;
76157;SDS011;64907;51.574;6.502;2024-02-21T14:01:30;4.43;;;3.75;;
76157;SDS011;64907;51.574;6.502;2024-02-21T14:03:56;4.07;;;3.20;;
76157;SDS011;64907;51.574;6.502;2024-02-21T14:06:24;5.70;;;3.40;;
76157;SDS011;64907;51.574;6.502;2024-02-21T14:08:49;7.70;;;3.95;;
76157;SDS011;64907;51.574;6.502;2024-02-21T14:11:23;8.45;;;4.05;;
76157;SDS011;64907;51.574;6.502;2024-02-21T14:13:52;6.82;;;3.42;;
76157;SDS011;64907;51.574;6.502;2024-02-21T14:16:19;5.20;;;3.15;;
76157;SDS011;64907;51.574;6.502;2024-02-21T14:18:51;6.13;;;3.22;;
76157;SDS011;64907;51.574;6.502;2024-02-21T14:21:17;7.32;;;3.70;;
76157;SDS011;64907;51.574;6.502;2024-02-21T14:23:43;6.32;;;2.70;;
76157;SDS011;64907;51.574;6.502;2024-02-21T14:26:09;4.82;;;3.40;;
76157;SDS011;64907;51.574;6.502;2024-02-21T14:31:04;7.65;;;3.58;;
76157;SDS011;64907;51.574;6.502;2024-02-21T14:33:31;6.68;;;2.92;;
76157;SDS011;64907;51.574;6.502;2024-02-21T14:35:58;8.40;;;3.13;;
76157;SDS011;64907;51.574;6.502;2024-02-21T14:40:52;7.10;;;3.15;;
76157;SDS011;64907;51.574;6.502;2024-02-21T14:43:17;5.97;;;3.33;;
76157;SDS011;64907;51.574;6.502;2024-02-21T14:45:43;6.78;;;3.70;;
76157;SDS011;64907;51.574;6.502;2024-02-21T14:48:10;5.47;;;3.22;;
76157;SDS011;64907;51.574;6.502;2024-02-21T14:50:36;10.70;;;3.85;;
76157;SDS011;64907;51.574;6.502;2024-02-21T14:53:02;8.10;;;3.63;;
76157;SDS011;64907;51.574;6.502;2024-02-21T14:55:27;4.55;;;3.67;;
76157;SDS011;64907;51.574;6.502;2024-02-21T14:57:52;10.52;;;4.15;;
76157;SDS011;64907;51.574;6.502;2024-02-21T15:02:54;4.95;;;3.97;;
76157;SDS011;64907;51.574;6.502;2024-02-21T15:05:19;11.20;;;4.38;;
76157;SDS011;64907;51.574;6.502;2024-02-21T15:07:45;4.32;;;3.85;;
76157;SDS011;64907;51.574;6.502;2024-02-21T15:10:10;6.67;;;3.87;;
76157;SDS011;64907;51.574;6.502;2024-02-21T15:12:39;5.88;;;4.30;;
76157;SDS011;64907;51.574;6.502;2024-02-21T15:15:05;6.65;;;3.95;;
76157;SDS011;64907;51.574;6.502;2024-02-21T15:17:30;6.68;;;3.65;;
76157;SDS011;64907;51.574;6.502;2024-02-21T15:19:56;3.65;;;3.35;;
76157;SDS011;64907;51.574;6.502;2024-02-21T15:22:33;4.50;;;3.05;;
76157;SDS011;64907;51.574;6.502;2024-02-21T15:25:00;3.83;;;3.25;;
76157;SDS011;64907;51.574;6.502;2024-02-21T15:27:25;6.25;;;3.47;;
76157;SDS011;64907;51.574;6.502;2024-02-21T15:29:52;8.80;;;3.47;;
76157;SDS011;64907;51.574;6.502;2024-02-21T15:34:47;4.57;;;3.08;;
76157;SDS011;64907;51.574;6.502;2024-02-21T15:37:12;5.53;;;3.20;;
76157;SDS011;64907;51.574;6.502;2024-02-21T15:47:31;3.78;;;2.67;;
76157;SDS011;64907;51.574;6.502;2024-02-21T15:49:57;7.65;;;3.03;;
76157;SDS011;64907;51.574;6.502;2024-02-21T15:52:42;5.05;;;3.22;;
76157;SDS011;64907;51.574;6.502;2024-02-21T15:55:23;3.58;;;3.08;;
76157;SDS011;64907;51.574;6.502;2024-02-21T15:57:49;5.32;;;3.00;;
76157;SDS011;64907;51.574;6.502;2024-02-21T16:00:16;7.47;;;3.88;;
76157;SDS011;64907;51.574;6.502;2024-02-21T16:02:44;3.58;;;3.28;;
76157;SDS011;64907;51.574;6.502;2024-02-21T16:05:09;5.32;;;3.60;;
76157;SDS011;64907;51.574;6.502;2024-02-21T16:07:35;4.88;;;3.08;;
76157;SDS011;64907;51.574;6.502;2024-02-21T16:10:09;7.35;;;4.13;;
76157;SDS011;64907;51.574;6.502;2024-02-21T16:12:35;4.35;;;3.40;;
76157;SDS011;64907;51.574;6.502;2024-02-21T16:17:30;6.07;;;3.45;;
76157;SDS011;64907;51.574;6.502;2024-02-21T16:19:56;7.03;;;3.78;;
76157;SDS011;64907;51.574;6.502;2024-02-21T16:22:21;5.30;;;3.30;;
76157;SDS011;64907;51.574;6.502;2024-02-21T16:24:47;4.38;;;3.20;;
76157;SDS011;64907;51.574;6.502;2024-02-21T16:27:14;4.80;;;3.10;;
76157;SDS011;64907;51.574;6.502;2024-02-21T16:32:16;5.10;;;2.70;;
76157;SDS011;64907;51.574;6.502;2024-02-21T16:37:18;5.03;;;3.05;;
76157;SDS011;64907;51.574;6.502;2024-02-21T16:42:14;8.77;;;3.25;;
76157;SDS011;64907;51.574;6.502;2024-02-21T16:47:27;4.30;;;3.00;;
76157;SDS011;64907;51.574;6.502;2024-02-21T16:50:00;4.45;;;2.65;;